createdAt,value
2022-11-01T00:02:06.142Z,17.98
2022-11-01T00:04:32.920Z,18.40
2022-11-01T00:06:59.524Z,17.73
2022-11-01T00:09:26.135Z,17.85
2022-11-01T00:11:52.821Z,17.80
2022-11-01T00:14:20.373Z,18.13
2022-11-01T00:16:47.431Z,17.65
2022-11-01T00:19:14.809Z,18.13
2022-11-01T00:21:41.408Z,19.15
2022-11-01T00:24:08.767Z,16.45
2022-11-01T00:26:35.516Z,18.55
2022-11-01T00:29:02.115Z,18.75
2022-11-01T00:31:28.791Z,18.70
2022-11-01T00:50:13.827Z,14.43
2022-11-01T00:52:40.389Z,14.63
2022-11-01T00:55:07.330Z,15.98
2022-11-01T00:57:33.944Z,17.85
2022-11-01T01:00:00.611Z,19.08
2022-11-01T01:02:27.280Z,18.67
2022-11-01T01:04:54.849Z,15.82
2022-11-01T01:07:21.480Z,17.77
2022-11-01T01:09:48.059Z,20.08
2022-11-01T01:12:14.728Z,18.02
2022-11-01T01:14:41.265Z,19.02
2022-11-01T01:17:08.533Z,18.45
2022-11-01T01:19:35.229Z,15.80
2022-11-01T01:22:02.905Z,15.98
2022-11-01T01:24:29.762Z,16.13
2022-11-01T01:26:56.314Z,15.32
2022-11-01T01:29:22.875Z,19.38
2022-11-01T01:31:52.661Z,14.95
2022-11-01T01:34:19.449Z,14.23
2022-11-01T01:36:46.947Z,16.48
2022-11-01T01:39:13.854Z,18.25
2022-11-01T01:41:58.965Z,17.30
2022-11-01T01:44:50.408Z,18.30
2022-11-01T01:47:30.198Z,17.98
2022-11-01T01:50:07.731Z,18.00
2022-11-01T01:52:43.909Z,17.25
2022-11-01T01:55:11.937Z,16.75
2022-11-01T01:57:40.494Z,16.00
2022-11-01T02:00:08.158Z,16.92
2022-11-01T02:02:34.936Z,17.80
2022-11-01T02:05:08.677Z,15.88
2022-11-01T02:07:35.254Z,16.75
2022-11-01T02:10:02.390Z,16.45
2022-11-01T02:12:35.693Z,16.77
2022-11-01T02:15:04.413Z,17.50
2022-11-01T02:17:49.442Z,16.45
2022-11-01T02:20:34.546Z,15.57
2022-11-01T02:23:19.900Z,17.38
2022-11-01T02:25:58.411Z,16.02
2022-11-01T02:28:33.954Z,16.48
2022-11-01T02:31:24.778Z,16.25
2022-11-01T02:34:14.246Z,17.50
2022-11-01T02:36:47.238Z,17.08
2022-11-01T02:39:22.834Z,16.13
2022-11-01T02:42:02.305Z,17.23
2022-11-01T02:44:35.806Z,17.80
2022-11-01T02:47:02.977Z,17.50
2022-11-01T02:49:32.715Z,17.05
2022-11-01T02:52:00.797Z,16.98
2022-11-01T02:54:32.174Z,17.30
2022-11-01T02:57:03.397Z,17.65
2022-11-01T02:59:30.328Z,17.30
2022-11-01T03:02:08.216Z,18.38
2022-11-01T03:04:36.278Z,18.70
2022-11-01T03:07:06.889Z,18.15
2022-11-01T03:09:35.964Z,19.23
2022-11-01T03:12:07.485Z,18.88
2022-11-01T03:14:53.994Z,17.70
2022-11-01T03:17:41.553Z,14.43
2022-11-01T03:20:11.384Z,14.50
2022-11-01T03:22:43.992Z,15.18
2022-11-01T03:25:40.662Z,14.60
2022-11-01T03:28:32.028Z,14.18
2022-11-01T03:31:12.399Z,14.93
2022-11-01T03:33:48.125Z,14.25
2022-11-01T03:36:18.656Z,14.27
2022-11-01T03:39:09.173Z,12.88
2022-11-01T03:41:42.145Z,12.10
2022-11-01T03:44:11.703Z,12.73
2022-11-01T03:46:38.887Z,12.43
2022-11-01T03:49:05.542Z,12.55
2022-11-01T03:51:32.737Z,11.32
2022-11-01T03:53:59.537Z,10.13
2022-11-01T03:56:26.158Z,10.80
2022-11-01T03:58:52.998Z,11.35
2022-11-01T04:01:19.853Z,11.13
2022-11-01T04:03:46.622Z,12.05
2022-11-01T04:06:13.183Z,12.02
2022-11-01T04:08:39.840Z,11.82
2022-11-01T04:11:06.582Z,11.40
2022-11-01T04:13:33.208Z,11.70
2022-11-01T04:16:18.412Z,11.70
2022-11-01T04:19:14.229Z,11.18
2022-11-01T04:21:41.172Z,10.77
2022-11-01T04:24:09.045Z,11.73
2022-11-01T04:26:36.243Z,10.80
2022-11-01T04:29:02.880Z,10.00
2022-11-01T04:31:33.162Z,10.32
2022-11-01T04:34:00.553Z,9.73
2022-11-01T04:36:27.592Z,9.40
2022-11-01T04:38:56.057Z,10.38
2022-11-01T04:41:24.436Z,9.57
2022-11-01T04:43:54.013Z,9.75
2022-11-01T04:46:21.310Z,10.90
2022-11-01T04:48:48.149Z,10.20
2022-11-01T04:51:14.717Z,10.25
2022-11-01T04:53:41.500Z,10.73
2022-11-01T04:56:11.172Z,11.43
2022-11-01T04:58:42.949Z,9.65
2022-11-01T05:01:14.469Z,11.43
2022-11-01T05:03:41.529Z,11.65
2022-11-01T05:06:08.346Z,11.05
2022-11-01T05:08:35.098Z,12.13
2022-11-01T05:11:02.002Z,11.38
2022-11-01T05:13:29.133Z,12.43
2022-11-01T05:16:20.031Z,12.63
2022-11-01T05:18:43.035Z,15.85
2022-11-01T06:50:45.387Z,14.02
2022-11-01T06:53:12.103Z,13.82
2022-11-01T06:55:38.781Z,13.68
2022-11-01T06:58:05.672Z,13.40
2022-11-01T07:00:32.729Z,14.60
2022-11-01T07:03:04.633Z,15.93
2022-11-01T07:05:36.972Z,16.15
2022-11-01T07:08:09.354Z,15.43
2022-11-01T07:10:37.871Z,16.85
2022-11-01T07:13:06.113Z,17.17
2022-11-01T07:15:33.083Z,20.15
2022-11-01T07:18:02.050Z,18.10
2022-11-01T07:20:30.199Z,17.95
2022-11-01T07:23:05.679Z,18.13
2022-11-01T07:25:33.686Z,18.00
2022-11-01T07:28:00.260Z,15.63
2022-11-01T07:30:27.621Z,16.45
2022-11-01T07:32:59.680Z,16.40
2022-11-01T07:35:27.364Z,15.93
2022-11-01T07:37:57.254Z,17.00
2022-11-01T07:40:27.707Z,17.20
2022-11-01T07:43:05.000Z,16.20
2022-11-01T07:45:33.934Z,16.60
2022-11-01T07:48:06.698Z,17.90
2022-11-01T07:50:34.126Z,17.50
2022-11-01T07:53:06.236Z,18.85
2022-11-01T07:55:33.724Z,18.30
2022-11-01T07:58:00.631Z,18.02
2022-11-01T08:00:27.965Z,18.65
2022-11-01T08:03:05.434Z,18.30
2022-11-01T08:05:32.665Z,18.88
2022-11-01T08:07:59.783Z,17.88
2022-11-01T08:10:27.296Z,18.83
2022-11-01T08:13:15.093Z,18.48
2022-11-01T08:15:42.149Z,17.33
2022-11-01T08:18:09.796Z,18.00
2022-11-01T08:20:36.774Z,16.58
2022-11-01T08:23:04.207Z,17.33
2022-11-01T08:25:31.496Z,16.95
2022-11-01T08:28:06.811Z,17.27
2022-11-01T08:30:34.360Z,17.23
2022-11-01T08:33:04.000Z,16.80
2022-11-01T08:35:32.580Z,16.08
2022-11-01T08:37:59.664Z,18.20
2022-11-01T08:40:28.367Z,17.77
2022-11-01T08:42:55.872Z,16.25
2022-11-01T08:45:22.586Z,15.48
2022-11-01T08:47:49.343Z,15.10
2022-11-01T08:50:17.718Z,15.23
2022-11-01T08:52:44.552Z,15.52
2022-11-01T08:55:11.742Z,15.25
2022-11-01T08:57:38.444Z,16.00
2022-11-01T09:00:12.457Z,16.17
2022-11-01T09:02:39.231Z,14.80
2022-11-01T09:05:07.030Z,15.88
2022-11-01T09:07:34.916Z,15.82
2022-11-01T09:10:01.762Z,16.80
2022-11-01T09:12:28.398Z,16.27
2022-11-01T09:14:55.033Z,16.40
2022-11-01T09:17:21.635Z,13.05
2022-11-01T09:19:48.241Z,12.77
2022-11-01T09:22:15.062Z,12.45
2022-11-01T09:24:41.762Z,12.05
2022-11-01T09:27:11.385Z,12.00
2022-11-01T09:29:38.025Z,12.30
2022-11-01T09:32:06.642Z,11.05
2022-11-01T09:34:33.625Z,13.23
2022-11-01T09:37:00.264Z,12.63
2022-11-01T09:39:27.501Z,11.77
2022-11-01T09:42:02.871Z,11.82
2022-11-01T09:44:37.212Z,12.25
2022-11-01T09:47:08.386Z,12.43
2022-11-01T09:49:41.102Z,12.68
2022-11-01T09:52:10.771Z,11.82
2022-11-01T09:54:37.539Z,12.15
2022-11-01T09:57:13.254Z,13.25
2022-11-01T09:59:58.231Z,12.90
2022-11-01T10:02:52.720Z,13.45
2022-11-01T10:05:31.683Z,14.00
2022-11-01T10:08:16.979Z,13.15
2022-11-01T10:11:10.820Z,11.90
2022-11-01T10:13:55.872Z,12.82
2022-11-01T10:16:42.152Z,12.10
2022-11-01T10:19:21.936Z,12.05
2022-11-01T10:22:01.097Z,12.63
2022-11-01T10:24:43.229Z,13.02
2022-11-01T10:27:26.090Z,12.50
2022-11-01T10:30:03.231Z,13.25
2022-11-01T10:33:02.879Z,14.70
2022-11-01T10:35:37.616Z,13.27
2022-11-01T10:38:32.289Z,13.95
2022-11-01T10:41:09.981Z,13.73
2022-11-01T10:43:44.022Z,13.57
2022-11-01T10:46:18.095Z,12.15
2022-11-01T10:48:53.309Z,12.57
2022-11-01T10:51:27.816Z,11.18
2022-11-01T10:54:03.001Z,12.18
2022-11-01T10:56:37.390Z,11.65
2022-11-01T10:59:10.489Z,12.73
2022-11-01T11:01:42.782Z,12.32
2022-11-01T11:04:15.915Z,11.95
2022-11-01T11:06:43.253Z,11.73
2022-11-01T11:09:36.157Z,12.18
2022-11-01T11:12:25.422Z,12.10
2022-11-01T11:14:59.973Z,13.35
2022-11-01T11:17:38.723Z,11.02
2022-11-01T11:20:08.995Z,10.05
2022-11-01T11:22:41.076Z,9.32
2022-11-01T11:25:32.992Z,8.55
2022-11-01T11:28:00.862Z,9.57
2022-11-01T11:30:35.416Z,10.20
2022-11-01T11:33:03.302Z,9.00
2022-11-01T11:35:32.858Z,7.93
2022-11-01T11:38:05.665Z,8.23
2022-11-01T11:40:41.451Z,7.45
2022-11-01T11:43:31.308Z,8.32
2022-11-01T11:46:21.765Z,9.60
2022-11-01T11:49:00.698Z,8.50
2022-11-01T11:51:29.863Z,7.78
2022-11-01T11:54:15.055Z,6.68
2022-11-01T11:56:41.931Z,7.50
2022-11-01T11:59:29.196Z,6.30
2022-11-01T12:02:01.579Z,6.35
2022-11-01T12:04:38.494Z,6.72
2022-11-01T12:07:11.275Z,7.65
2022-11-01T12:09:46.840Z,6.38
2022-11-01T12:12:22.651Z,8.38
2022-11-01T12:14:49.717Z,6.80
2022-11-01T12:17:31.439Z,6.35
2022-11-01T12:20:02.636Z,6.10
2022-11-01T12:22:33.332Z,6.20
2022-11-01T12:25:05.846Z,5.50
2022-11-01T12:27:35.698Z,5.55
2022-11-01T12:30:20.474Z,5.95
2022-11-01T12:32:47.798Z,6.22
2022-11-01T12:35:45.010Z,5.85
2022-11-01T12:38:39.858Z,5.82
2022-11-01T12:41:29.703Z,5.60
2022-11-01T12:44:33.678Z,5.63
2022-11-01T12:47:14.853Z,5.32
2022-11-01T12:49:48.989Z,5.07
2022-11-01T12:52:29.649Z,4.95
2022-11-01T12:55:32.182Z,5.90
2022-11-01T12:57:59.611Z,5.60
2022-11-01T13:00:41.556Z,5.88
2022-11-01T13:03:37.467Z,4.68
2022-11-01T13:06:22.333Z,4.70
2022-11-01T13:08:59.146Z,5.00
2022-11-01T13:11:35.265Z,4.47
2022-11-01T13:14:17.108Z,4.65
2022-11-01T13:16:48.835Z,4.03
2022-11-01T13:19:23.444Z,3.70
2022-11-01T13:21:55.848Z,4.70
2022-11-01T13:24:39.755Z,3.17
2022-11-01T13:27:35.298Z,2.58
2022-11-01T13:30:17.336Z,3.58
2022-11-01T13:33:05.975Z,4.05
2022-11-01T13:35:47.830Z,4.80
2022-11-01T13:38:36.410Z,4.32
2022-11-01T13:41:38.537Z,4.32
2022-11-01T13:44:16.868Z,3.90
2022-11-01T13:46:56.303Z,3.28
2022-11-01T13:49:36.610Z,3.05
2022-11-01T13:52:13.083Z,2.95
2022-11-01T13:54:54.747Z,2.80
2022-11-01T13:57:27.567Z,4.57
2022-11-01T13:59:57.935Z,3.75
2022-11-01T14:02:27.635Z,2.95
2022-11-01T14:04:57.779Z,2.83
2022-11-01T14:07:33.597Z,4.15
2022-11-01T14:10:00.415Z,3.42
2022-11-01T14:12:34.427Z,3.45
2022-11-01T14:15:14.092Z,3.35
2022-11-01T14:17:52.985Z,4.03
2022-11-01T14:20:25.497Z,3.10
2022-11-01T14:22:53.471Z,3.28
2022-11-01T14:28:17.511Z,2.60
2022-11-01T14:30:51.530Z,2.25
2022-11-01T14:33:23.007Z,2.97
2022-11-01T14:35:57.742Z,3.10
2022-11-01T14:38:32.546Z,3.13
2022-11-01T14:41:00.808Z,2.28
2022-11-01T14:43:35.156Z,5.43
2022-11-01T14:46:20.262Z,5.85
2022-11-01T14:48:57.866Z,6.43
2022-11-01T14:51:56.681Z,6.25
2022-11-01T14:54:23.272Z,6.85
2022-11-01T14:56:52.274Z,5.78
2022-11-01T14:59:24.705Z,5.10
2022-11-01T15:01:58.136Z,5.55
2022-11-01T15:04:31.634Z,5.35
2022-11-01T15:07:00.227Z,4.13
2022-11-01T15:09:30.302Z,4.68
2022-11-01T15:12:06.999Z,4.63
2022-11-01T15:14:46.761Z,5.10
2022-11-01T15:17:31.235Z,4.35
2022-11-01T15:19:59.954Z,4.35
2022-11-01T15:22:30.375Z,4.68
2022-11-01T15:25:02.655Z,4.72
2022-11-01T15:27:37.460Z,4.43
2022-11-01T15:30:04.890Z,4.50
2022-11-01T15:32:34.057Z,4.38
2022-11-01T15:35:05.990Z,4.82
2022-11-01T15:37:33.451Z,4.45
2022-11-01T15:40:02.092Z,5.10
2022-11-01T15:42:33.900Z,5.40
2022-11-01T15:45:19.287Z,6.20
2022-11-01T15:47:46.826Z,7.65
2022-11-01T15:50:13.651Z,9.25
2022-11-01T15:52:40.318Z,7.60
2022-11-01T15:55:21.201Z,7.97
2022-11-01T15:58:06.898Z,7.40
2022-11-01T16:00:51.489Z,7.88
2022-11-01T16:03:25.106Z,7.82
2022-11-01T16:05:59.803Z,7.18
2022-11-01T16:08:42.835Z,7.95
2022-11-01T16:11:10.274Z,7.70
2022-11-01T16:13:37.635Z,8.02
2022-11-01T16:16:07.812Z,12.75
2022-11-01T16:18:36.498Z,14.57
2022-11-01T16:21:30.921Z,11.45
2022-11-01T16:24:11.460Z,10.35
2022-11-01T16:27:04.331Z,29.48
2022-11-01T16:29:49.636Z,21.13
2022-11-01T16:32:27.774Z,18.02
2022-11-01T16:35:00.208Z,14.25
2022-11-01T16:37:29.675Z,12.93
2022-11-01T16:39:57.922Z,11.43
2022-11-01T16:42:24.895Z,11.02
2022-11-01T16:44:56.236Z,10.88
2022-11-01T16:47:23.079Z,10.50
2022-11-01T16:49:52.565Z,12.27
2022-11-01T16:52:19.470Z,12.23
2022-11-01T16:54:52.612Z,11.18
2022-11-01T16:57:28.916Z,10.70
2022-11-01T16:59:56.785Z,10.43
2022-11-01T17:02:30.217Z,12.07
2022-11-01T17:05:15.856Z,12.75
2022-11-01T17:07:42.587Z,13.48
2022-11-01T17:10:15.499Z,16.60
2022-11-01T17:12:42.147Z,13.90
2022-11-01T17:15:11.902Z,11.10
2022-11-01T17:17:39.766Z,9.73
2022-11-01T17:20:06.853Z,9.80
2022-11-01T17:22:36.240Z,8.70
2022-11-01T17:25:04.852Z,10.45
2022-11-01T17:27:31.630Z,11.32
2022-11-01T17:29:58.238Z,10.23
2022-11-01T17:32:24.925Z,10.40
2022-11-01T17:34:51.458Z,6.82
2022-11-01T17:37:18.081Z,12.10
2022-11-01T17:39:44.910Z,11.23
2022-11-01T17:42:11.607Z,11.57
2022-11-01T17:44:38.307Z,10.48
2022-11-01T17:47:04.888Z,10.93
2022-11-01T17:49:31.563Z,10.35
2022-11-01T17:51:58.326Z,9.90
2022-11-01T17:56:52.603Z,13.45
2022-11-01T17:59:19.501Z,12.27
2022-11-01T18:01:46.332Z,9.02
2022-11-01T18:04:13.185Z,9.35
2022-11-01T18:06:43.864Z,7.93
2022-11-01T18:09:19.877Z,7.25
2022-11-01T18:12:11.909Z,7.82
2022-11-01T18:14:38.597Z,10.15
2022-11-01T18:17:14.424Z,8.48
2022-11-01T18:19:59.925Z,8.73
2022-11-01T18:22:45.267Z,8.80
2022-11-01T18:25:30.729Z,7.78
2022-11-01T18:28:00.617Z,8.02
2022-11-01T18:30:27.712Z,9.02
2022-11-01T18:33:10.351Z,11.27
2022-11-01T18:35:46.364Z,10.80
2022-11-01T18:38:33.174Z,10.90
2022-11-01T18:41:01.862Z,10.68
2022-11-01T18:43:32.578Z,12.27
2022-11-01T18:48:47.879Z,13.15
2022-11-01T18:51:23.042Z,14.93
2022-11-01T18:53:56.406Z,13.30
2022-11-01T18:56:25.695Z,13.93
2022-11-01T18:58:53.985Z,14.07
2022-11-01T19:01:31.665Z,14.18
2022-11-01T19:04:10.358Z,16.33
2022-11-01T19:06:37.249Z,16.70
2022-11-01T19:09:16.091Z,16.08
2022-11-01T19:11:42.832Z,15.43
2022-11-01T19:14:15.534Z,13.75
2022-11-01T19:16:42.410Z,13.95
2022-11-01T19:19:16.776Z,14.75
2022-11-01T19:21:44.338Z,13.98
2022-11-01T19:24:38.340Z,14.20
2022-11-01T19:27:18.572Z,15.13
2022-11-01T19:29:45.222Z,15.35
2022-11-01T19:32:16.331Z,16.10
2022-11-01T19:34:43.325Z,15.68
2022-11-01T19:37:24.871Z,15.30
2022-11-01T19:39:52.270Z,14.70
2022-11-01T19:42:39.102Z,14.50
2022-11-01T19:45:14.855Z,13.13
2022-11-01T19:47:44.767Z,15.98
2022-11-01T19:50:14.276Z,16.88
2022-11-01T19:52:47.106Z,15.15
2022-11-01T19:55:35.999Z,14.68
2022-11-01T19:58:15.119Z,16.17
2022-11-01T20:00:42.043Z,18.85
2022-11-01T20:03:23.655Z,22.40
2022-11-01T20:05:50.312Z,18.60
2022-11-01T20:08:29.442Z,15.13
2022-11-01T20:10:56.064Z,15.43
2022-11-01T20:13:22.880Z,12.82
2022-11-01T20:15:49.641Z,13.80
2022-11-01T20:18:16.635Z,13.57
2022-11-01T20:20:45.845Z,13.38
2022-11-01T20:23:25.804Z,14.90
2022-11-01T20:25:53.490Z,14.55
2022-11-01T20:28:20.077Z,14.35
2022-11-01T20:30:46.827Z,13.32
2022-11-01T20:33:13.981Z,13.13
2022-11-01T20:35:40.594Z,13.45
2022-11-01T20:38:07.372Z,13.73
2022-11-01T20:40:33.998Z,15.05
2022-11-01T20:43:00.874Z,14.20
2022-11-01T20:45:27.759Z,14.48
2022-11-01T20:47:55.354Z,13.85
2022-11-01T20:50:21.943Z,14.65
2022-11-01T20:52:49.484Z,15.27
2022-11-01T20:55:16.230Z,14.30
2022-11-01T20:57:43.087Z,14.77
2022-11-01T21:00:13.215Z,16.00
2022-11-01T21:02:40.927Z,18.40
2022-11-01T21:05:28.539Z,17.33
2022-11-01T21:08:14.840Z,16.17
2022-11-01T21:10:42.736Z,15.20
2022-11-01T21:13:26.486Z,16.02
2022-11-01T21:15:55.120Z,15.60
2022-11-01T21:18:23.009Z,14.50
2022-11-01T21:20:49.783Z,14.02
2022-11-01T21:23:32.338Z,15.98
2022-11-01T21:26:10.966Z,18.23
2022-11-01T21:28:44.494Z,15.77
2022-11-01T21:31:11.002Z,16.02
2022-11-01T21:33:40.806Z,17.02
2022-11-01T21:36:22.198Z,15.93
2022-11-01T21:38:56.153Z,15.50
2022-11-01T21:41:39.011Z,15.90
2022-11-01T21:44:20.217Z,16.23
2022-11-01T21:46:48.453Z,15.57
2022-11-01T21:49:24.956Z,15.10
2022-11-01T21:51:52.612Z,14.30
2022-11-01T21:54:19.421Z,14.50
2022-11-01T21:56:46.241Z,15.50
2022-11-01T21:59:12.777Z,15.85
2022-11-01T22:01:45.635Z,15.38
2022-11-01T22:04:13.886Z,15.75
2022-11-01T22:06:41.411Z,16.67
2022-11-01T22:09:09.194Z,16.40
2022-11-01T22:11:36.656Z,15.98
2022-11-01T22:14:04.122Z,16.45
2022-11-01T22:16:30.993Z,15.90
2022-11-01T22:18:57.606Z,15.50
2022-11-01T22:21:24.754Z,15.55
2022-11-01T22:23:51.677Z,15.25
2022-11-01T22:26:18.465Z,14.43
2022-11-01T22:28:45.079Z,15.50
2022-11-01T22:31:11.762Z,15.25
2022-11-01T22:33:38.452Z,15.43
2022-11-01T22:36:08.116Z,15.15
2022-11-01T22:38:43.257Z,15.38
2022-11-01T22:41:33.240Z,16.77
2022-11-01T22:44:13.764Z,16.90
2022-11-01T22:46:59.483Z,16.88
2022-11-01T22:49:30.181Z,13.60
2022-11-01T22:52:16.876Z,14.85
2022-11-01T22:54:47.792Z,14.77
2022-11-01T22:57:21.909Z,13.75
2022-11-01T22:59:52.461Z,14.20
2022-11-01T23:02:29.824Z,14.88
2022-11-01T23:05:19.124Z,15.77
2022-11-01T23:07:48.524Z,15.63
2022-11-01T23:10:35.245Z,15.65
2022-11-01T23:13:29.582Z,15.75
2022-11-01T23:16:01.419Z,16.10
2022-11-01T23:18:33.655Z,15.95
2022-11-01T23:21:07.431Z,17.10
2022-11-01T23:23:40.720Z,14.88
2022-11-01T23:26:07.849Z,14.05
2022-11-01T23:28:35.533Z,15.05
2022-11-01T23:31:05.537Z,14.40
2022-11-01T23:33:43.234Z,14.52
2022-11-01T23:36:33.318Z,15.02
2022-11-01T23:39:13.810Z,15.90
2022-11-01T23:41:46.851Z,14.13
2022-11-01T23:44:16.475Z,14.27
2022-11-01T23:46:43.132Z,14.98
2022-11-01T23:49:18.008Z,13.95
2022-11-01T23:51:45.079Z,14.07
2022-11-01T23:54:20.602Z,13.38
2022-11-01T23:56:47.239Z,12.70
2022-11-01T23:59:16.410Z,11.48
